Time;durP1;ratioP1;P1;durP2;ratioP2;P2;SDS_P1;SDS_P2;PMS_P1;PMS_P2;Temp;Humidity;BMP_temperature;BMP_pressure;BME280_temperature;BME280_humidity;BME280_pressure;Samples;Min_cycle;Max_cycle;Signal;HPM_P1;HPM_P2
2021/10/24 00:00:20;;;;;;;29.15;11.57;;;;;;;2.82;78.05;102032.81;1693084;84;21444;-77
2021/10/24 00:02:47;;;;;;;25.68;9.83;;;;;;;2.83;78.09;102034.52;1692859;84;21035;-77
2021/10/24 00:05:13;;;;;;;18.70;8.13;;;;;;;2.78;78.14;102040.52;1693082;84;21011;-77
2021/10/24 00:07:39;;;;;;;36.17;13.80;;;;;;;2.74;78.20;102036.33;1692903;84;21039;-77
2021/10/24 00:10:07;;;;;;;34.08;13.38;;;;;;;2.71;78.24;102043.08;1692651;84;21470;-76
2021/10/24 00:12:33;;;;;;;41.95;15.40;;;;;;;2.69;78.30;102048.88;1693420;84;21602;-77
2021/10/24 00:14:59;;;;;;;39.98;18.52;;;;;;;2.65;78.33;102046.01;1693317;84;21030;-77
2021/10/24 00:17:24;;;;;;;39.08;14.33;;;;;;;2.59;78.37;102046.33;1693099;84;20916;-76
2021/10/24 00:19:50;;;;;;;27.60;13.28;;;;;;;2.58;78.45;102046.80;1679977;84;21050;-76
2021/10/24 00:22:17;;;;;;;25.20;11.18;;;;;;;2.59;78.48;102039.75;1685269;85;21162;-76
2021/10/24 00:24:43;;;;;;;20.10;10.28;;;;;;;2.59;78.51;102034.48;1688022;85;21031;-76
2021/10/24 00:27:09;;;;;;;21.55;10.75;;;;;;;2.61;78.54;102040.51;1689224;84;21094;-77
2021/10/24 00:29:35;;;;;;;26.35;12.37;;;;;;;2.62;78.56;102043.08;1699660;84;21460;-77
2021/10/24 00:32:01;;;;;;;29.65;11.65;;;;;;;2.61;78.60;102045.77;1698546;84;21074;-77
2021/10/24 00:34:27;;;;;;;32.85;11.43;;;;;;;2.63;78.65;102043.93;1699594;84;21294;-77
2021/10/24 00:36:53;;;;;;;19.35;8.88;;;;;;;2.63;78.67;102046.56;1682102;79;21002;-77
2021/10/24 00:39:19;;;;;;;19.45;7.28;;;;;;;2.62;78.71;102046.17;1682234;84;21017;-77
2021/10/24 00:41:45;;;;;;;17.70;7.90;;;;;;;2.64;78.75;102049.59;1695950;84;21085;-78
2021/10/24 00:44:24;;;;;;;23.42;7.58;;;;;;;2.67;78.76;102053.39;1677705;85;21512;-77
2021/10/24 00:46:55;;;;;;;22.58;9.23;;;;;;;2.68;78.80;102051.11;1707527;82;21505;-77
2021/10/24 00:49:21;;;;;;;18.87;8.83;;;;;;;2.70;78.83;102050.59;1707848;84;20944;-78
2021/10/24 00:51:47;;;;;;;24.87;10.18;;;;;;;2.73;78.85;102056.55;1707597;84;20999;-77
2021/10/24 00:54:13;;;;;;;19.27;8.80;;;;;;;2.76;78.90;102051.58;1678215;85;20987;-78
2021/10/24 00:56:40;;;;;;;21.48;8.65;;;;;;;2.81;78.94;102057.47;1708338;84;21468;-78
2021/10/24 00:59:08;;;;;;;20.65;7.10;;;;;;;2.84;78.97;102057.31;1708767;84;21238;-77
2021/10/24 01:01:34;;;;;;;18.07;6.87;;;;;;;2.88;79.00;102057.55;1713125;82;21025;-77
2021/10/24 01:04:03;;;;;;;24.37;7.60;;;;;;;2.89;79.03;102059.22;1731651;82;21094;-77
2021/10/24 01:06:31;;;;;;;17.60;7.20;;;;;;;2.91;79.10;102060.02;1738036;82;21529;-77
2021/10/24 01:08:57;;;;;;;19.15;6.08;;;;;;;2.90;79.12;102053.03;1738225;82;21045;-77
2021/10/24 01:11:25;;;;;;;16.90;7.62;;;;;;;2.89;79.17;102056.59;1713674;82;21171;-77
2021/10/24 01:13:51;;;;;;;15.25;6.17;;;;;;;2.83;79.23;102047.23;1707411;84;21011;-77
2021/10/24 01:16:18;;;;;;;16.57;6.25;;;;;;;2.85;79.29;102049.80;1707909;84;21038;-78
2021/10/24 01:18:44;;;;;;;21.35;8.03;;;;;;;2.85;79.32;102051.13;1708655;84;21014;-78
2021/10/24 01:21:10;;;;;;;20.70;10.05;;;;;;;2.84;79.37;102053.36;1709025;84;21051;-77
2021/10/24 01:23:36;;;;;;;24.07;10.03;;;;;;;2.81;79.43;102051.75;1708922;84;21158;-77
2021/10/24 01:26:04;;;;;;;20.40;9.48;;;;;;;2.81;79.45;102058.80;1722266;82;21020;-77
2021/10/24 01:28:30;;;;;;;21.80;9.10;;;;;;;2.80;79.49;102051.81;1731658;82;21020;-77
2021/10/24 01:30:56;;;;;;;20.75;8.40;;;;;;;2.78;79.55;102062.41;1731260;82;21051;-77
2021/10/24 01:33:22;;;;;;;20.97;9.18;;;;;;;2.74;79.59;102060.05;1731583;82;21594;-77
2021/10/24 01:35:53;;;;;;;23.70;12.20;;;;;;;2.68;79.65;102060.33;1738824;82;21220;-77
2021/10/24 01:38:19;;;;;;;19.95;9.98;;;;;;;2.64;79.71;102062.77;1730745;82;20998;-77
2021/10/24 01:40:45;;;;;;;24.55;11.35;;;;;;;2.61;79.75;102062.89;1710190;83;21014;-77
2021/10/24 01:43:11;;;;;;;24.92;15.25;;;;;;;2.59;79.80;102063.45;1704533;84;21007;-77
2021/10/24 01:45:37;;;;;;;26.48;16.60;;;;;;;2.55;79.83;102060.58;1706234;83;21019;-77
2021/10/24 01:48:05;;;;;;;26.05;17.65;;;;;;;2.53;79.85;102061.99;1710124;83;21010;-77
2021/10/24 01:50:31;;;;;;;26.07;14.38;;;;;;;2.51;79.88;102060.73;1729581;83;20943;-77
2021/10/24 01:52:57;;;;;;;31.62;14.85;;;;;;;2.50;79.92;102060.34;1729377;83;21058;-77
2021/10/24 01:55:23;;;;;;;25.48;13.68;;;;;;;2.47;79.97;102059.19;1728738;82;21089;-77
2021/10/24 01:57:51;;;;;;;23.00;11.83;;;;;;;2.46;80.00;102056.66;1729248;83;21042;-77
2021/10/24 02:00:17;;;;;;;23.83;12.40;;;;;;;2.47;80.02;102055.23;1729396;83;21864;-77
2021/10/24 02:02:44;;;;;;;28.32;10.60;;;;;;;2.43;80.05;102058.09;1729453;83;21037;-77
2021/10/24 02:05:10;;;;;;;25.62;8.68;;;;;;;2.40;80.10;102057.80;1729017;83;21069;-77
2021/10/24 02:07:36;;;;;;;25.32;10.32;;;;;;;2.37;80.12;102059.27;1729646;83;21001;-77
2021/10/24 02:10:08;;;;;;;27.82;11.43;;;;;;;2.38;80.17;102068.88;1728471;83;21033;-77
2021/10/24 02:12:34;;;;;;;20.50;10.05;;;;;;;2.35;80.20;102069.03;1729309;83;21824;-77
2021/10/24 02:15:01;;;;;;;16.25;8.65;;;;;;;2.34;80.21;102071.27;1728811;83;21020;-77
2021/10/24 02:17:27;;;;;;;23.00;8.60;;;;;;;2.32;80.25;102066.52;1729331;83;21110;-77
2021/10/24 02:19:53;;;;;;;27.52;10.50;;;;;;;2.31;80.29;102067.48;1729214;83;21048;-77
2021/10/24 02:22:20;;;;;;;22.95;10.60;;;;;;;2.31;80.30;102070.11;1729522;83;21616;-77
2021/10/24 02:24:46;;;;;;;20.77;10.05;;;;;;;2.28;80.34;102067.63;1729556;82;21126;-77
2021/10/24 02:27:12;;;;;;;20.57;9.33;;;;;;;2.26;80.35;102064.20;1729337;83;21121;-77
2021/10/24 02:29:38;;;;;;;22.30;9.00;;;;;;;2.27;80.40;102064.61;1729352;82;21142;-77
2021/10/24 02:32:05;;;;;;;20.65;9.60;;;;;;;2.23;80.39;102070.94;1729412;81;21005;-77
2021/10/24 02:34:31;;;;;;;16.62;9.00;;;;;;;2.20;80.44;102063.20;1729530;83;21044;-77
2021/10/24 02:36:57;;;;;;;23.85;10.08;;;;;;;2.18;80.45;102071.63;1729169;82;21157;-77
2021/10/24 02:39:23;;;;;;;20.23;10.00;;;;;;;2.14;80.48;102066.61;1742123;82;20988;-77
2021/10/24 02:41:50;;;;;;;23.98;10.90;;;;;;;2.13;80.51;102067.06;1729487;83;20973;-77
2021/10/24 02:44:16;;;;;;;22.30;9.85;;;;;;;2.11;80.52;102063.64;1729244;81;21013;-77
2021/10/24 02:46:42;;;;;;;22.90;9.63;;;;;;;2.08;80.54;102062.94;1742402;82;21550;-77
2021/10/24 02:49:08;;;;;;;20.95;9.43;;;;;;;2.05;80.59;102060.00;1729346;83;21886;-77
2021/10/24 02:51:34;;;;;;;19.42;9.25;;;;;;;2.02;80.61;102058.84;1729399;82;21013;-77
2021/10/24 02:54:00;;;;;;;19.55;8.88;;;;;;;1.97;80.62;102072.70;1729377;83;20996;-77
2021/10/24 02:56:26;;;;;;;19.75;9.23;;;;;;;1.92;80.65;102068.96;1729513;83;21084;-77
2021/10/24 02:58:52;;;;;;;24.82;9.78;;;;;;;1.89;80.67;102069.57;1729503;82;21082;-77
2021/10/24 03:01:18;;;;;;;23.10;8.65;;;;;;;1.85;80.70;102073.27;1741989;81;21110;-77
2021/10/24 03:03:44;;;;;;;23.70;8.35;;;;;;;1.84;80.71;102070.23;1729238;83;21064;-77
2021/10/24 03:06:10;;;;;;;22.70;10.13;;;;;;;1.82;80.74;102066.39;1729264;83;21008;-77
2021/10/24 03:08:36;;;;;;;16.80;8.78;;;;;;;1.83;80.77;102064.13;1729440;83;21036;-77
2021/10/24 03:11:02;;;;;;;16.40;6.97;;;;;;;1.82;80.75;102061.13;1729389;83;21051;-77
2021/10/24 03:13:28;;;;;;;16.15;7.80;;;;;;;1.75;80.79;102057.55;1742247;82;21189;-77
2021/10/24 03:15:54;;;;;;;26.30;10.00;;;;;;;1.67;80.80;102062.30;1729354;83;21528;-77
2021/10/24 03:18:20;;;;;;;24.25;8.55;;;;;;;1.65;80.82;102060.22;1741977;82;21480;-77
2021/10/24 03:20:47;;;;;;;30.25;10.18;;;;;;;1.59;80.82;102061.34;1729498;82;21013;-77
2021/10/24 03:23:13;;;;;;;36.08;10.50;;;;;;;1.48;80.85;102061.84;1742126;82;21008;-77
2021/10/24 03:25:40;;;;;;;42.80;11.12;;;;;;;1.44;80.86;102065.53;1729455;83;21168;-77
2021/10/24 03:28:06;;;;;;;65.10;19.35;;;;;;;1.41;80.89;102065.67;1729129;82;21480;-77
2021/10/24 03:30:32;;;;;;;55.98;15.95;;;;;;;1.36;80.88;102065.52;1742137;82;21606;-77
2021/10/24 03:32:58;;;;;;;46.98;14.98;;;;;;;1.35;80.90;102071.22;1729236;83;20997;-77
2021/10/24 03:35:24;;;;;;;40.92;14.05;;;;;;;1.35;80.93;102073.85;1729111;83;21027;-77
2021/10/24 03:37:50;;;;;;;48.60;16.10;;;;;;;1.34;80.95;102067.34;1729257;82;21121;-77
2021/10/24 03:40:16;;;;;;;138.60;39.00;;;;;;;1.32;80.96;102078.39;1729176;83;21020;-77
2021/10/24 03:42:42;;;;;;;197.35;55.20;;;;;;;1.31;80.99;102074.05;1742125;82;21050;-77
2021/10/24 03:45:09;;;;;;;148.13;44.15;;;;;;;1.28;80.98;102078.14;1729334;83;22023;-77
2021/10/24 03:47:35;;;;;;;139.82;48.10;;;;;;;1.26;80.99;102075.59;1729395;81;21008;-77
2021/10/24 03:50:01;;;;;;;143.50;48.78;;;;;;;1.20;80.99;102075.84;1729282;83;21151;-77
2021/10/24 03:52:27;;;;;;;178.05;58.80;;;;;;;1.18;81.02;102081.65;1729414;82;21036;-77
2021/10/24 03:54:53;;;;;;;133.85;43.98;;;;;;;1.17;81.04;102079.94;1742045;82;21086;-77
2021/10/24 03:57:20;;;;;;;144.87;47.75;;;;;;;1.14;81.03;102084.02;1729419;83;21008;-77
2021/10/24 03:59:46;;;;;;;163.45;56.25;;;;;;;1.10;81.04;102087.70;1742319;82;22296;-77
2021/10/24 04:02:12;;;;;;;125.85;43.02;;;;;;;1.08;81.03;102094.80;1729071;81;21822;-77
2021/10/24 04:04:38;;;;;;;133.03;45.15;;;;;;;1.07;81.05;102090.92;1741939;82;20964;-77
2021/10/24 04:07:04;;;;;;;168.68;70.60;;;;;;;1.04;81.06;102091.06;1729400;81;21048;-77
2021/10/24 04:09:31;;;;;;;124.50;47.45;;;;;;;1.01;81.09;102093.38;1742066;82;21062;-77
2021/10/24 04:11:57;;;;;;;122.95;45.52;;;;;;;0.99;81.07;102089.94;1729256;83;21106;-77
2021/10/24 04:14:26;;;;;;;112.32;41.70;;;;;;;0.97;81.08;102090.48;1741941;82;21074;-77
2021/10/24 04:16:52;;;;;;;97.85;38.88;;;;;;;0.93;81.06;102091.53;1729457;83;21059;-77
2021/10/24 04:19:18;;;;;;;86.37;34.23;;;;;;;0.92;81.10;102099.00;1742227;82;21455;-77
2021/10/24 04:21:44;;;;;;;76.17;30.35;;;;;;;0.89;81.10;102092.58;1729410;83;21343;-77
2021/10/24 04:24:11;;;;;;;75.65;31.12;;;;;;;0.85;81.12;102091.00;1742266;82;20996;-77
2021/10/24 04:26:37;;;;;;;72.95;33.55;;;;;;;0.83;81.12;102087.60;1729358;82;21134;-77
2021/10/24 04:29:03;;;;;;;76.17;31.75;;;;;;;0.81;81.16;102089.45;1742035;82;21043;-76
2021/10/24 04:31:29;;;;;;;56.42;24.30;;;;;;;0.80;81.15;102091.67;1729376;82;21059;-77
2021/10/24 04:33:56;;;;;;;51.30;21.80;;;;;;;0.78;81.16;102089.55;1742286;82;21028;-77
2021/10/24 04:36:22;;;;;;;38.45;16.57;;;;;;;0.80;81.20;102088.59;1729067;83;21020;-77
2021/10/24 04:38:48;;;;;;;42.65;18.60;;;;;;;0.79;81.21;102091.27;1752150;81;21133;-77
2021/10/24 04:41:15;;;;;;;54.83;23.87;;;;;;;0.80;81.22;102086.42;1759484;81;21054;-77
2021/10/24 04:43:41;;;;;;;50.85;19.62;;;;;;;0.79;81.23;102088.65;1738753;81;21063;-77
2021/10/24 04:46:07;;;;;;;30.37;12.25;;;;;;;0.80;81.25;102083.34;1738744;82;21480;-77
2021/10/24 04:48:33;;;;;;;28.45;10.63;;;;;;;0.81;81.29;102086.83;1759563;81;21479;-77
2021/10/24 04:51:00;;;;;;;26.50;9.88;;;;;;;0.80;81.28;102085.11;1738976;82;21877;-77
2021/10/24 04:53:26;;;;;;;28.55;13.25;;;;;;;0.81;81.33;102090.77;1738988;82;21056;-77
2021/10/24 04:55:53;;;;;;;28.47;11.97;;;;;;;0.81;81.35;102092.08;1759708;81;21029;-77
2021/10/24 04:58:19;;;;;;;25.82;12.03;;;;;;;0.83;81.37;102094.16;1738894;82;21094;-77
2021/10/24 05:00:45;;;;;;;19.85;10.38;;;;;;;0.83;81.37;102087.60;1738770;82;21055;-77
2021/10/24 05:03:11;;;;;;;22.32;9.25;;;;;;;0.80;81.38;102089.91;1739133;82;21097;-77
2021/10/24 05:05:38;;;;;;;24.52;10.60;;;;;;;0.78;81.40;102096.12;1759795;81;20972;-77
2021/10/24 05:08:05;;;;;;;37.20;16.70;;;;;;;0.73;81.41;102099.42;1738940;82;21492;-77
2021/10/24 05:10:31;;;;;;;29.32;12.82;;;;;;;0.69;81.42;102103.09;1759542;81;21038;-77
2021/10/24 05:12:57;;;;;;;42.38;19.42;;;;;;;0.67;81.45;102110.19;1738921;81;21499;-77
2021/10/24 05:15:23;;;;;;;62.67;26.35;;;;;;;0.65;81.45;102113.32;1735622;81;21783;-77
2021/10/24 05:17:50;;;;;;;55.85;22.95;;;;;;;0.61;81.45;102117.84;1708266;84;21038;-77
2021/10/24 05:20:16;;;;;;;36.00;17.30;;;;;;;0.61;81.49;102115.67;1703265;84;21016;-77
2021/10/24 05:22:42;;;;;;;35.13;15.40;;;;;;;0.60;81.49;102115.30;1702362;84;21043;-77
2021/10/24 05:25:08;;;;;;;33.40;15.15;;;;;;;0.58;81.51;102123.69;1702868;84;21111;-77
2021/10/24 05:27:34;;;;;;;43.17;19.87;;;;;;;0.60;81.54;102119.24;1702212;84;21183;-77
2021/10/24 05:30:00;;;;;;;45.58;24.52;;;;;;;0.58;81.57;102120.61;1702834;84;20953;-77
2021/10/24 05:32:27;;;;;;;49.93;27.85;;;;;;;0.57;81.56;102121.97;1702491;84;21477;-77
2021/10/24 05:34:53;;;;;;;62.15;39.83;;;;;;;0.52;81.58;102126.58;1702775;84;21075;-77
2021/10/24 05:37:19;;;;;;;90.92;59.90;;;;;;;0.50;81.60;102127.48;1702783;84;21008;-77
2021/10/24 05:39:45;;;;;;;110.42;65.78;;;;;;;0.47;81.60;102135.48;1702525;83;21142;-77
2021/10/24 05:42:11;;;;;;;124.90;68.85;;;;;;;0.44;81.64;102129.05;1702450;84;21000;-77
2021/10/24 05:44:38;;;;;;;122.82;62.17;;;;;;;0.43;81.64;102140.45;1702707;84;21072;-77
2021/10/24 05:47:04;;;;;;;70.35;33.95;;;;;;;0.45;81.67;102141.72;1702591;84;21052;-77
2021/10/24 05:49:30;;;;;;;46.83;18.62;;;;;;;0.43;81.68;102137.83;1702882;84;21008;-77
2021/10/24 05:51:56;;;;;;;49.35;21.07;;;;;;;0.44;81.67;102138.23;1703048;84;21070;-77
2021/10/24 05:54:22;;;;;;;29.85;14.30;;;;;;;0.48;81.69;102142.45;1702626;84;21020;-77
2021/10/24 05:56:48;;;;;;;31.42;13.90;;;;;;;0.52;81.72;102148.42;1702726;84;21047;-77
2021/10/24 05:59:14;;;;;;;34.03;19.02;;;;;;;0.56;81.74;102143.91;1702709;84;21529;-77
2021/10/24 06:01:40;;;;;;;57.27;24.55;;;;;;;0.59;81.76;102143.77;1702893;84;21639;-77
2021/10/24 06:04:06;;;;;;;79.03;32.20;;;;;;;0.59;81.77;102146.40;1702778;84;21166;-77
2021/10/24 06:06:32;;;;;;;101.65;44.85;;;;;;;0.63;81.80;102147.98;1702737;84;21064;-77
2021/10/24 06:09:01;;;;;;;76.28;38.95;;;;;;;0.70;81.84;102148.13;1702845;84;21052;-77
2021/10/24 06:11:45;;;;;;;78.87;48.60;;;;;;;0.78;81.87;102156.05;1702260;84;21020;-78
2021/10/24 06:14:01;;;;;;;50.70;29.37;;;;;;;0.84;81.87;102152.34;1700532;84;21001;-78
2021/10/24 06:16:27;;;;;;;44.00;26.82;;;;;;;0.89;81.86;102152.98;1702815;84;21036;-78
2021/10/24 06:18:53;;;;;;;52.23;24.75;;;;;;;1.05;81.85;102154.05;1702803;84;21020;-78
2021/10/24 06:21:20;;;;;;;36.42;19.23;;;;;;;1.17;81.88;102157.89;1702889;84;21627;-78
2021/10/24 06:23:46;;;;;;;52.20;25.85;;;;;;;1.31;81.87;102164.26;1702737;84;21109;-77
2021/10/24 06:26:12;;;;;;;40.23;18.73;;;;;;;1.51;81.90;102164.70;1702610;84;21091;-78
2021/10/24 06:28:38;;;;;;;54.10;26.07;;;;;;;1.71;81.89;102162.48;1702345;84;21136;-78
2021/10/24 06:31:04;;;;;;;52.90;27.05;;;;;;;1.83;81.92;102161.93;1702649;84;21114;-77
2021/10/24 06:33:30;;;;;;;43.20;19.20;;;;;;;1.94;81.98;102168.38;1702822;84;21492;-77
2021/10/24 06:35:56;;;;;;;46.73;22.82;;;;;;;2.00;82.07;102173.38;1702895;84;21488;-77
2021/10/24 06:38:22;;;;;;;71.12;30.17;;;;;;;2.15;82.11;102179.67;1700438;84;21112;-77
2021/10/24 06:40:48;;;;;;;86.78;39.10;;;;;;;2.33;82.12;102180.11;1687959;84;22236;-77
2021/10/24 06:43:14;;;;;;;64.85;25.08;;;;;;;2.50;82.11;102186.73;1687935;85;21006;-77
2021/10/24 06:45:40;;;;;;;69.55;25.25;;;;;;;2.64;82.12;102179.95;1687859;85;21008;-77
2021/10/24 06:48:07;;;;;;;106.32;83.90;;;;;;;2.75;82.14;102189.47;1688104;84;21013;-78
2021/10/24 06:50:33;;;;;;;63.60;38.75;;;;;;;2.76;82.16;102192.50;1688006;85;21081;-77
2021/10/24 06:52:59;;;;;;;56.42;27.60;;;;;;;2.77;82.21;102191.59;1687871;85;21125;-77
2021/10/24 06:55:25;;;;;;;50.55;22.80;;;;;;;2.84;82.21;102195.63;1687963;84;20997;-78
2021/10/24 06:57:53;;;;;;;58.48;24.12;;;;;;;2.98;82.22;102204.55;1687888;85;21502;-77
2021/10/24 07:00:21;;;;;;;65.95;31.62;;;;;;;3.08;82.23;102204.92;1687671;85;21536;-78
2021/10/24 07:02:48;;;;;;;71.75;37.88;;;;;;;3.16;82.22;102205.41;1687618;85;21033;-78
2021/10/24 07:05:15;;;;;;;83.15;44.23;;;;;;;3.18;82.25;102211.44;1688248;85;21860;-78
2021/10/24 07:07:41;;;;;;;77.08;35.78;;;;;;;3.23;82.24;102209.43;1687557;84;21028;-78
2021/10/24 07:10:09;;;;;;;69.95;30.70;;;;;;;3.31;82.26;102217.77;1688050;85;21054;-78
2021/10/24 07:12:35;;;;;;;49.25;21.85;;;;;;;3.43;82.23;102217.16;1687859;85;21081;-78
2021/10/24 07:15:02;;;;;;;44.25;18.32;;;;;;;3.61;82.21;102217.13;1687894;84;21041;-78
2021/10/24 07:17:28;;;;;;;37.67;16.07;;;;;;;3.78;82.18;102221.89;1687983;85;21040;-78
2021/10/24 07:19:54;;;;;;;36.65;16.37;;;;;;;3.94;82.13;102221.94;1688097;84;20933;-78
2021/10/24 07:22:20;;;;;;;49.83;19.77;;;;;;;4.10;82.12;102221.47;1688132;85;21489;-78
2021/10/24 07:24:46;;;;;;;52.80;22.90;;;;;;;4.30;82.08;102225.19;1687754;84;21498;-78
2021/10/24 07:27:12;;;;;;;47.40;20.88;;;;;;;4.51;82.06;102222.67;1687829;84;21032;-78
2021/10/24 07:29:38;;;;;;;85.77;37.35;;;;;;;4.78;82.02;102233.48;1687747;85;21245;-78
2021/10/24 07:32:05;;;;;;;61.18;27.98;;;;;;;4.98;81.95;102224.39;1687623;84;21052;-78
2021/10/24 07:34:31;;;;;;;48.38;20.17;;;;;;;5.25;81.94;102225.87;1688004;84;21029;-78
2021/10/24 07:36:57;;;;;;;48.45;18.95;;;;;;;5.48;81.91;102230.19;1688019;85;21479;-78
2021/10/24 07:39:23;;;;;;;70.17;25.90;;;;;;;5.70;81.87;102220.95;1694160;84;21694;-78
2021/10/24 07:41:49;;;;;;;60.70;24.00;;;;;;;5.88;81.85;102218.50;1702259;84;21158;-78
2021/10/24 07:44:16;;;;;;;53.00;23.35;;;;;;;6.09;81.79;102219.80;1702692;84;21112;-78
2021/10/24 07:46:43;;;;;;;49.77;21.10;;;;;;;6.21;81.74;102207.13;1702684;84;21072;-78
2021/10/24 07:49:09;;;;;;;43.48;16.55;;;;;;;6.39;81.69;102211.25;1702863;84;21740;-78
2021/10/24 07:51:36;;;;;;;45.17;15.68;;;;;;;6.50;81.65;102205.26;1702684;84;21024;-78
2021/10/24 07:54:03;;;;;;;34.85;12.98;;;;;;;6.58;81.61;102212.72;1702566;84;21016;-78
2021/10/24 07:56:29;;;;;;;32.42;15.83;;;;;;;6.67;81.55;102210.78;1702681;84;21496;-78
2021/10/24 07:58:56;;;;;;;21.23;11.25;;;;;;;6.82;81.50;102209.31;1702482;84;21492;-78
2021/10/24 08:01:22;;;;;;;24.75;12.15;;;;;;;6.95;81.42;102211.52;1702485;84;21057;-77
2021/10/24 08:03:49;;;;;;;33.25;14.18;;;;;;;7.15;81.37;102212.82;1702626;84;21056;-78
2021/10/24 08:06:18;;;;;;;21.45;11.53;;;;;;;7.30;81.30;102213.12;1702630;84;21320;-78
2021/10/24 08:08:43;;;;;;;19.50;9.63;;;;;;;7.41;81.20;102210.59;1702411;83;21018;-78
2021/10/24 08:11:11;;;;;;;20.32;9.28;;;;;;;7.54;81.12;102214.09;1702821;84;21024;-78
2021/10/24 08:13:37;;;;;;;16.30;9.38;;;;;;;7.65;81.08;102207.18;1702803;84;21055;-78
2021/10/24 08:16:03;;;;;;;16.50;8.75;;;;;;;7.75;81.01;102202.92;1702655;84;21028;-78
2021/10/24 08:18:29;;;;;;;22.70;9.70;;;;;;;7.85;80.96;102209.28;1702783;84;21566;-78
2021/10/24 08:20:55;;;;;;;30.92;14.47;;;;;;;7.99;80.88;102199.86;1702576;84;21016;-78
2021/10/24 08:23:21;;;;;;;36.05;18.40;;;;;;;8.07;80.77;102204.16;1702570;84;21059;-78
2021/10/24 08:25:49;;;;;;;34.00;17.55;;;;;;;8.18;80.67;102200.73;1702548;84;20997;-77
2021/10/24 08:28:15;;;;;;;17.62;8.20;;;;;;;8.18;80.58;102201.58;1702766;84;21027;-78
2021/10/24 08:30:41;;;;;;;18.42;8.53;;;;;;;8.29;80.49;102198.19;1702745;84;21146;-78
2021/10/24 08:33:07;;;;;;;17.55;7.30;;;;;;;8.26;80.36;102200.56;1720901;82;21020;-78
2021/10/24 08:35:33;;;;;;;17.62;6.47;;;;;;;8.27;80.31;102196.92;1707509;82;21054;-78
2021/10/24 08:37:59;;;;;;;15.53;5.37;;;;;;;8.34;80.19;102202.67;1733238;82;21004;-78
2021/10/24 08:40:28;;;;;;;36.45;16.12;;;;;;;8.37;80.11;102199.31;1696034;83;21070;-78
2021/10/24 08:42:59;;;;;;;32.03;14.70;;;;;;;8.44;80.01;102196.57;1692854;83;21188;-78
2021/10/24 08:45:23;;;;;;;22.00;10.25;;;;;;;8.61;79.91;102201.16;1692024;83;21070;-78
2021/10/24 08:47:49;;;;;;;30.25;12.10;;;;;;;8.74;79.83;102199.27;1691378;84;21019;-78
2021/10/24 08:50:15;;;;;;;23.22;10.40;;;;;;;8.95;79.70;102195.01;1691953;84;20986;-78
2021/10/24 08:52:42;;;;;;;17.80;7.75;;;;;;;8.95;79.70;102195.01;1691935;84;21121;-78
2021/10/24 08:55:09;;;;;;;18.30;7.37;;;;;;;9.00;79.49;102200.84;1692494;83;21172;-78
2021/10/24 08:57:35;;;;;;;20.50;6.78;;;;;;;9.06;79.38;102195.05;1693311;83;21067;-79
2021/10/24 09:00:01;;;;;;;21.02;8.75;;;;;;;9.16;79.29;102199.19;1698841;83;21559;-78
2021/10/24 09:02:57;;;;;;;27.48;12.63;;;;;;;9.17;79.15;102196.42;1682333;84;21060;-78
2021/10/24 09:05:42;;;;;;;20.95;9.03;;;;;;;9.16;78.97;102202.70;1697255;84;21053;-79
2021/10/24 09:08:15;;;;;;;21.68;9.48;;;;;;;9.19;78.82;102201.13;1697072;83;21306;-78
2021/10/24 09:10:48;;;;;;;21.27;10.65;;;;;;;9.31;78.71;102199.36;1696029;83;21112;-78
2021/10/24 09:13:18;;;;;;;26.30;9.90;;;;;;;9.37;78.55;102191.74;1697128;84;21089;-78
2021/10/24 09:15:55;;;;;;;29.98;9.60;;;;;;;9.46;78.39;102192.35;1678858;84;27244;-78
2021/10/24 09:18:39;;;;;;;20.97;9.30;;;;;;;9.59;78.20;102194.08;1675860;85;21030;-78
2021/10/24 09:21:19;;;;;;;18.07;6.78;;;;;;;9.64;78.05;102192.73;1694393;84;21134;-78
2021/10/24 09:23:46;;;;;;;27.60;9.15;;;;;;;9.69;77.92;102196.37;1676075;85;21577;-78
2021/10/24 09:26:24;;;;;;;30.60;9.70;;;;;;;9.74;77.79;102200.88;1694232;84;21019;-77
2021/10/24 09:29:05;;;;;;;17.98;5.90;;;;;;;9.85;77.63;102199.55;1675988;85;21073;-77
2021/10/24 09:31:31;;;;;;;17.87;5.85;;;;;;;9.93;77.42;102194.44;1694644;83;21002;-78
2021/10/24 09:34:21;;;;;;;22.37;6.90;;;;;;;9.89;77.24;102191.66;1676937;84;21982;-78
2021/10/24 09:36:57;;;;;;;21.90;8.18;;;;;;;9.86;76.97;102198.08;1703072;83;21076;-78
2021/10/24 09:39:32;;;;;;;20.43;6.17;;;;;;;9.83;76.72;102203.66;1684975;82;21015;-77
2021/10/24 09:42:22;;;;;;;18.60;9.40;;;;;;;9.82;76.55;102197.95;1726030;83;20983;-78
2021/10/24 09:45:13;;;;;;;26.15;11.90;;;;;;;9.81;76.43;102198.09;1719575;83;21126;-78
2021/10/24 09:47:42;;;;;;;40.83;15.83;;;;;;;9.82;76.16;102195.29;1719312;83;21890;-78
2021/10/24 09:50:30;;;;;;;38.10;10.43;;;;;;;9.81;75.92;102188.29;1719500;83;21011;-78
2021/10/24 09:53:27;;;;;;;25.57;8.05;;;;;;;9.85;75.72;102183.56;1705737;83;21539;-78
2021/10/24 09:56:03;;;;;;;30.05;8.60;;;;;;;9.89;75.44;102186.33;1728234;81;21002;-77
2021/10/24 09:58:37;;;;;;;19.65;7.00;;;;;;;9.94;75.24;102184.16;1715348;82;21542;-77
2021/10/24 10:01:08;;;;;;;20.97;6.37;;;;;;;10.04;75.08;102179.30;1705342;81;21049;-77
2021/10/24 10:03:34;;;;;;;21.12;5.05;;;;;;;10.22;74.94;102176.16;1705717;83;21038;-76
2021/10/24 10:06:00;;;;;;;14.00;4.42;;;;;;;10.39;74.76;102184.48;1742891;81;21530;-75
2021/10/24 10:08:27;;;;;;;12.40;3.65;;;;;;;10.48;74.63;102182.38;1708318;82;21482;-75
2021/10/24 10:11:05;;;;;;;17.60;5.45;;;;;;;10.50;74.42;102176.45;1731584;81;21090;-75
2021/10/24 10:13:33;;;;;;;17.00;5.35;;;;;;;10.65;74.25;102182.83;1730469;82;21535;-74
2021/10/24 10:16:06;;;;;;;27.48;9.35;;;;;;;10.81;73.98;102180.58;1733233;81;21042;-74
2021/10/24 10:18:57;;;;;;;17.85;5.83;;;;;;;10.90;73.77;102181.16;1732342;81;21046;-75
2021/10/24 10:21:37;;;;;;;20.62;6.80;;;;;;;10.94;73.52;102174.59;1727941;82;20999;-75
2021/10/24 10:24:12;;;;;;;23.83;6.35;;;;;;;10.98;73.33;102175.52;1708060;82;21110;-77
2021/10/24 10:26:42;;;;;;;13.25;3.70;;;;;;;10.96;73.03;102172.63;1724281;81;21133;-77
2021/10/24 10:29:11;;;;;;;13.60;3.80;;;;;;;10.90;72.81;102167.33;1706464;82;25911;-78
2021/10/24 10:31:37;;;;;;;14.83;3.87;;;;;;;10.76;72.48;102163.63;1699315;82;21023;-78
2021/10/24 10:34:09;;;;;;;20.10;5.70;;;;;;;10.71;72.20;102170.31;1704306;82;21052;-78
2021/10/24 10:36:55;;;;;;;13.20;4.40;;;;;;;10.72;71.99;102160.01;1704402;82;21067;-78
2021/10/24 10:39:37;;;;;;;18.10;5.00;;;;;;;10.72;71.75;102160.01;1704562;83;21131;-78
2021/10/24 10:42:24;;;;;;;18.17;5.00;;;;;;;10.81;71.55;102157.89;1674049;84;21042;-78
2021/10/24 10:45:19;;;;;;;23.00;5.62;;;;;;;10.89;71.31;102155.44;1694237;83;22225;-78
2021/10/24 10:48:04;;;;;;;45.73;21.40;;;;;;;10.93;71.05;102160.88;1677325;85;21066;-77
2021/10/24 10:50:39;;;;;;;20.65;6.40;;;;;;;10.94;70.76;102153.24;1674578;85;21062;-78
2021/10/24 10:53:10;;;;;;;17.87;10.38;;;;;;;10.93;70.53;102148.87;1673793;85;21603;-78
2021/10/24 10:56:07;;;;;;;15.48;5.20;;;;;;;10.90;70.26;102146.46;1674602;84;21030;-78
2021/10/24 10:58:43;;;;;;;12.07;3.72;;;;;;;10.90;70.02;102151.80;1697787;83;21057;-78
2021/10/24 11:01:33;;;;;;;15.20;3.87;;;;;;;10.97;69.74;102145.82;1645921;87;21510;-78
2021/10/24 11:04:16;;;;;;;13.65;4.00;;;;;;;10.93;69.54;102139.05;1671213;84;21124;-78
2021/10/24 11:06:52;;;;;;;13.65;3.40;;;;;;;10.98;69.35;102139.97;1665267;85;21199;-78
2021/10/24 11:09:39;;;;;;;15.08;4.33;;;;;;;10.89;69.10;102138.09;1678210;84;21002;-78
2021/10/24 11:12:09;;;;;;;13.10;4.20;;;;;;;10.88;69.01;102140.39;1682730;84;21361;-78
2021/10/24 11:14:38;;;;;;;;;;;;;;;10.81;68.76;102133.88;1677982;85;21026;-78
2021/10/24 11:17:04;;;;;;;12.78;4.37;;;;;;;10.85;68.64;102130.83;1657645;85;20562;-78
2021/10/24 11:19:42;;;;;;;13.98;4.17;;;;;;;10.91;68.54;102128.11;1690163;84;21776;-78
2021/10/24 11:22:17;;;;;;;13.00;3.75;;;;;;;10.92;68.41;102124.48;1686076;84;21571;-78
2021/10/24 11:24:53;;;;;;;20.70;5.78;;;;;;;10.94;68.27;102127.88;1681535;84;21074;-78